createdAt,value
2018-02-27T00:00:17.312Z,59.90
2018-02-27T00:02:44.805Z,60.30
2018-02-27T00:05:12.287Z,60.40
2018-02-27T00:07:39.786Z,60.40
2018-02-27T00:10:07.260Z,59.80
2018-02-27T00:12:34.783Z,60.10
2018-02-27T00:15:02.313Z,60.60
2018-02-27T00:17:29.838Z,60.30
2018-02-27T00:19:57.314Z,59.90
2018-02-27T00:22:25.613Z,60.50
2018-02-27T00:24:53.079Z,60.50
2018-02-27T00:27:20.572Z,59.80
2018-02-27T00:29:48.093Z,59.60
2018-02-27T00:32:15.575Z,59.70
2018-02-27T00:34:43.097Z,59.60
2018-02-27T00:37:10.593Z,59.40
2018-02-27T00:39:38.110Z,58.60
2018-02-27T00:42:05.612Z,59.60
2018-02-27T00:44:33.137Z,59.30
2018-02-27T00:47:00.599Z,59.40
2018-02-27T00:49:28.089Z,59.30
2018-02-27T00:51:55.555Z,59.50
2018-02-27T00:54:25.924Z,59.20
2018-02-27T00:56:53.423Z,59.10
2018-02-27T00:59:20.907Z,59.10
2018-02-27T01:01:49.172Z,59.10
2018-02-27T01:04:20.201Z,59.10
2018-02-27T01:06:47.715Z,59.10
2018-02-27T01:09:15.205Z,59.10
2018-02-27T01:11:42.722Z,58.80
2018-02-27T01:14:10.210Z,58.80
2018-02-27T01:19:57.927Z,58.90
2018-02-27T01:22:25.426Z,59.30
2018-02-27T01:24:52.915Z,59.80
2018-02-27T01:27:21.159Z,59.20
2018-02-27T01:29:48.647Z,59.20
2018-02-27T01:32:16.880Z,59.50
2018-02-27T01:34:44.414Z,59.50
2018-02-27T01:37:11.896Z,59.40
2018-02-27T01:39:39.417Z,59.50
2018-02-27T01:42:06.906Z,59.50
2018-02-27T01:44:34.463Z,59.60
2018-02-27T01:47:02.003Z,59.50
2018-02-27T01:49:29.487Z,59.40
2018-02-27T01:51:56.984Z,58.90
2018-02-27T01:54:24.459Z,58.80
2018-02-27T01:56:51.952Z,59.00
2018-02-27T01:59:19.440Z,59.00
2018-02-27T02:01:47.687Z,58.80
2018-02-27T02:04:15.223Z,58.80
2018-02-27T02:06:42.706Z,58.80
2018-02-27T02:09:10.192Z,58.50
2018-02-27T02:11:37.719Z,58.20
2018-02-27T02:14:05.214Z,58.00
2018-02-27T02:16:32.694Z,58.10
2018-02-27T02:19:00.186Z,57.90
2018-02-27T02:21:27.659Z,57.60
2018-02-27T02:23:55.915Z,58.40
2018-02-27T02:26:23.391Z,57.90
2018-02-27T02:28:51.651Z,57.50
2018-02-27T02:31:19.180Z,57.50
2018-02-27T02:33:46.683Z,57.00
2018-02-27T02:36:14.960Z,58.10
2018-02-27T02:38:43.261Z,58.40
2018-02-27T02:41:10.780Z,58.40
2018-02-27T02:43:39.036Z,58.50
2018-02-27T02:46:06.530Z,58.50
2018-02-27T02:48:33.991Z,58.70
2018-02-27T02:51:01.506Z,59.00
2018-02-27T02:53:28.965Z,59.10
2018-02-27T02:55:56.466Z,59.30
2018-02-27T02:58:23.930Z,59.70
2018-02-27T03:00:51.447Z,59.80
2018-02-27T03:03:19.710Z,60.80
2018-02-27T03:05:47.216Z,60.10
2018-02-27T03:08:15.118Z,60.40
2018-02-27T03:10:42.640Z,60.50
2018-02-27T03:13:10.159Z,60.70
2018-02-27T03:15:38.437Z,61.40
2018-02-27T03:18:06.674Z,61.20
2018-02-27T03:20:34.170Z,61.10
2018-02-27T03:23:01.672Z,61.40
2018-02-27T03:25:29.168Z,61.50
2018-02-27T03:27:56.683Z,61.60
2018-02-27T03:30:24.157Z,61.70
2018-02-27T03:32:51.648Z,62.00
2018-02-27T03:35:19.926Z,62.50
2018-02-27T03:37:48.187Z,62.70
2018-02-27T03:40:15.850Z,62.60
2018-02-27T03:42:44.144Z,63.10
2018-02-27T03:45:12.398Z,62.80
2018-02-27T03:47:39.911Z,62.80
2018-02-27T03:50:07.476Z,63.00
2018-02-27T03:52:35.003Z,63.10
2018-02-27T03:55:02.517Z,63.30
2018-02-27T03:57:29.990Z,63.30
2018-02-27T03:59:58.325Z,63.60
2018-02-27T04:02:25.807Z,63.50
2018-02-27T04:04:53.364Z,64.00
2018-02-27T04:07:20.894Z,64.10
2018-02-27T04:09:48.546Z,64.50
2018-02-27T04:12:16.037Z,64.60
2018-02-27T04:14:43.541Z,64.90
2018-02-27T04:17:11.024Z,64.90
2018-02-27T04:19:38.560Z,64.90
2018-02-27T04:22:06.042Z,65.40
2018-02-27T04:24:33.546Z,65.50
2018-02-27T04:27:01.790Z,65.60
2018-02-27T04:29:29.288Z,65.60
2018-02-27T04:31:56.833Z,65.70
2018-02-27T04:34:25.121Z,66.00
2018-02-27T04:36:53.375Z,66.10
2018-02-27T04:39:21.077Z,66.10
2018-02-27T04:41:48.600Z,66.70
2018-02-27T04:44:16.870Z,66.40
2018-02-27T04:46:44.436Z,67.00
2018-02-27T04:49:12.700Z,67.30
2018-02-27T04:51:40.958Z,67.20
2018-02-27T04:54:08.455Z,67.20
2018-02-27T04:56:36.019Z,67.10
2018-02-27T04:59:03.511Z,67.20
2018-02-27T05:01:31.693Z,67.40
2018-02-27T05:03:59.186Z,67.30
2018-02-27T05:06:27.431Z,68.10
2018-02-27T05:08:54.968Z,68.10
2018-02-27T05:11:22.453Z,68.00
2018-02-27T05:13:49.962Z,68.30
2018-02-27T05:16:17.497Z,68.30
2018-02-27T05:18:45.755Z,68.70
2018-02-27T05:21:14.008Z,68.60
2018-02-27T05:23:41.502Z,68.40
2018-02-27T05:26:09.049Z,68.80
2018-02-27T05:28:37.294Z,69.50
2018-02-27T05:31:04.830Z,69.50
2018-02-27T05:33:32.325Z,69.80
2018-02-27T05:36:00.710Z,70.30
2018-02-27T05:38:29.008Z,70.60
2018-02-27T05:40:56.472Z,70.50
2018-02-27T05:43:23.962Z,70.80
2018-02-27T05:45:51.498Z,71.00
2018-02-27T05:48:19.002Z,70.90
2018-02-27T05:50:46.539Z,71.00
2018-02-27T05:53:14.189Z,71.70
2018-02-27T05:55:41.758Z,71.20
2018-02-27T05:58:09.262Z,71.10
2018-02-27T06:00:36.831Z,71.10
2018-02-27T06:03:04.354Z,71.10
2018-02-27T06:05:32.754Z,71.40
2018-02-27T06:08:00.276Z,71.40
2018-02-27T06:10:27.892Z,71.20
2018-02-27T06:12:55.597Z,71.20
2018-02-27T06:15:23.256Z,71.40
2018-02-27T06:17:50.780Z,71.40
2018-02-27T06:20:18.347Z,71.40
2018-02-27T06:22:45.874Z,71.40
2018-02-27T06:25:13.361Z,71.50
2018-02-27T06:27:40.864Z,71.30
2018-02-27T06:30:09.124Z,71.50
2018-02-27T06:32:36.740Z,71.40
2018-02-27T06:35:04.217Z,71.40
2018-02-27T06:37:31.778Z,71.50
2018-02-27T06:39:59.279Z,71.00
2018-02-27T06:42:27.525Z,71.10
2018-02-27T06:44:55.018Z,71.10
2018-02-27T06:47:22.549Z,70.60
2018-02-27T06:49:50.826Z,69.60
2018-02-27T06:52:19.092Z,68.10
2018-02-27T06:54:47.363Z,67.90
2018-02-27T06:57:14.969Z,67.50
2018-02-27T06:59:42.470Z,66.90
2018-02-27T07:02:09.958Z,65.10
2018-02-27T07:04:38.245Z,61.60
2018-02-27T07:07:05.755Z,61.60
2018-02-27T07:09:33.224Z,60.20
2018-02-27T07:12:00.712Z,59.90
2018-02-27T07:14:28.256Z,60.10
2018-02-27T07:16:56.552Z,56.90
2018-02-27T07:19:24.211Z,56.90
2018-02-27T07:21:51.777Z,55.10
2018-02-27T07:24:19.276Z,54.80
2018-02-27T07:26:46.779Z,51.70
2018-02-27T07:29:14.412Z,50.30
2018-02-27T07:31:42.676Z,47.80
2018-02-27T07:34:11.695Z,47.20
2018-02-27T07:36:39.312Z,47.20
2018-02-27T07:39:06.837Z,45.90
2018-02-27T07:41:34.435Z,46.20
2018-02-27T07:44:01.996Z,46.50
2018-02-27T07:46:29.506Z,46.40
2018-02-27T07:48:57.003Z,46.70
2018-02-27T07:51:24.535Z,46.40
2018-02-27T07:53:52.266Z,46.80
2018-02-27T07:56:20.577Z,44.00
2018-02-27T07:58:48.042Z,44.00
2018-02-27T08:01:16.968Z,44.10
2018-02-27T08:03:48.216Z,43.30
2018-02-27T08:06:15.728Z,43.20
2018-02-27T08:08:44.441Z,42.80
2018-02-27T08:11:12.995Z,42.80
2018-02-27T08:13:45.067Z,43.90
2018-02-27T08:16:12.727Z,43.90
2018-02-27T08:18:41.603Z,42.90
2018-02-27T08:21:09.062Z,41.20
2018-02-27T08:23:37.052Z,40.00
2018-02-27T08:26:04.525Z,38.80
2018-02-27T08:28:33.000Z,38.70
2018-02-27T08:31:00.497Z,39.40
2018-02-27T08:33:30.791Z,40.60
2018-02-27T08:35:59.109Z,38.70
2018-02-27T08:38:28.049Z,38.70
2018-02-27T08:40:56.328Z,37.90
2018-02-27T08:43:24.973Z,37.20
2018-02-27T08:45:53.990Z,37.20
2018-02-27T08:48:21.483Z,36.90
2018-02-27T08:50:50.351Z,36.50
2018-02-27T08:53:18.127Z,36.40
2018-02-27T08:55:47.705Z,35.00
2018-02-27T08:58:15.204Z,35.00
2018-02-27T09:00:42.683Z,35.40
2018-02-27T09:03:10.417Z,34.80
2018-02-27T09:05:38.009Z,34.60
2018-02-27T09:08:05.568Z,34.00
2018-02-27T09:10:33.003Z,35.00
2018-02-27T09:13:01.093Z,35.50
2018-02-27T09:15:29.431Z,33.30
2018-02-27T09:17:56.908Z,31.50
2018-02-27T09:20:25.574Z,30.20
2018-02-27T09:22:53.044Z,30.40
2018-02-27T09:25:20.634Z,30.70
2018-02-27T09:27:48.125Z,30.40
2018-02-27T09:30:16.414Z,29.00
2018-02-27T09:32:44.005Z,29.00
2018-02-27T09:35:12.186Z,29.00
2018-02-27T09:37:39.710Z,29.00
2018-02-27T09:40:07.198Z,28.30
2018-02-27T09:42:34.713Z,27.60
2018-02-27T09:45:02.233Z,27.50
2018-02-27T09:47:32.281Z,27.90
2018-02-27T09:50:00.168Z,27.90
2018-02-27T09:52:27.668Z,27.70
2018-02-27T09:54:55.921Z,27.50
2018-02-27T09:57:23.406Z,27.10
2018-02-27T09:59:50.910Z,27.20
2018-02-27T10:02:18.982Z,26.90
2018-02-27T10:04:46.445Z,26.40
2018-02-27T10:07:14.239Z,25.30
2018-02-27T10:09:41.824Z,25.90
2018-02-27T10:12:10.127Z,26.70
2018-02-27T10:14:38.018Z,26.60
2018-02-27T10:17:05.964Z,26.20
2018-02-27T10:19:34.433Z,25.30
2018-02-27T10:22:02.986Z,25.90
2018-02-27T10:24:30.468Z,25.10
2018-02-27T10:26:58.731Z,24.30
2018-02-27T10:29:27.534Z,25.30
2018-02-27T10:31:57.190Z,25.30
2018-02-27T10:34:24.658Z,25.20
2018-02-27T10:36:52.201Z,26.10
2018-02-27T10:39:23.280Z,25.70
2018-02-27T10:41:50.967Z,25.10
2018-02-27T10:44:20.321Z,24.70
2018-02-27T10:46:48.602Z,24.40
2018-02-27T10:49:17.013Z,24.00
2018-02-27T10:51:45.499Z,24.00
2018-02-27T10:54:12.990Z,23.70
2018-02-27T10:56:40.472Z,24.40
2018-02-27T10:59:08.734Z,26.20
2018-02-27T11:01:36.208Z,26.20
2018-02-27T11:04:04.525Z,26.10
2018-02-27T11:06:32.856Z,25.80
2018-02-27T11:09:01.147Z,28.30
2018-02-27T11:11:28.755Z,28.30
2018-02-27T11:13:57.054Z,28.70
2018-02-27T11:16:24.665Z,29.30
2018-02-27T11:18:52.164Z,29.20
2018-02-27T11:21:20.680Z,29.60
2018-02-27T11:23:49.038Z,29.70
2018-02-27T11:26:17.865Z,29.50
2018-02-27T11:28:46.404Z,29.90
2018-02-27T11:31:14.722Z,29.10
2018-02-27T11:33:42.339Z,29.20
2018-02-27T11:36:10.592Z,29.30
2018-02-27T11:38:38.074Z,29.30
2018-02-27T11:41:08.190Z,28.90
2018-02-27T11:43:36.054Z,28.90
2018-02-27T11:46:04.299Z,29.00
2018-02-27T11:48:32.763Z,28.80
2018-02-27T11:51:00.975Z,28.70
2018-02-27T11:53:28.580Z,29.00
2018-02-27T11:55:56.625Z,29.00
2018-02-27T11:58:24.880Z,28.60
2018-02-27T12:00:52.685Z,28.60
2018-02-27T12:03:20.205Z,28.60
2018-02-27T12:05:48.456Z,28.40
2018-02-27T12:08:15.946Z,28.30
2018-02-27T12:10:45.398Z,28.30
2018-02-27T12:13:13.972Z,28.20
2018-02-27T12:15:41.462Z,28.30
2018-02-27T12:18:08.950Z,28.60
2018-02-27T12:20:37.211Z,28.50
2018-02-27T12:23:05.524Z,28.60
2018-02-27T12:25:33.035Z,28.60
2018-02-27T12:28:01.425Z,28.30
2018-02-27T12:30:30.546Z,28.60
2018-02-27T12:42:44.037Z,28.60
2018-02-27T12:45:11.587Z,28.90
2018-02-27T12:47:39.666Z,28.80
2018-02-27T12:50:08.758Z,28.60
2018-02-27T12:52:37.148Z,28.60
2018-02-27T12:55:05.522Z,28.80
2018-02-27T12:57:33.311Z,29.30
2018-02-27T13:00:00.833Z,29.10
2018-02-27T13:02:30.155Z,29.20
2018-02-27T13:04:57.707Z,29.30
2018-02-27T13:07:26.724Z,29.20
2018-02-27T13:09:54.223Z,29.50
2018-02-27T13:12:22.491Z,29.40
2018-02-27T13:14:50.869Z,29.60
2018-02-27T13:17:19.170Z,29.60
2018-02-27T13:19:46.879Z,29.60
2018-02-27T13:35:14.884Z,29.30
2018-02-27T13:37:42.885Z,30.80
2018-02-27T13:40:11.226Z,30.20
2018-02-27T13:42:39.456Z,30.30
2018-02-27T13:45:07.709Z,30.60
2018-02-27T13:57:21.520Z,30.80
2018-02-27T13:59:49.071Z,30.70
2018-02-27T14:02:17.336Z,30.10
2018-02-27T14:04:44.823Z,30.10
2018-02-27T14:07:13.113Z,30.30
2018-02-27T14:09:41.436Z,30.20
2018-02-27T14:12:09.909Z,30.90
2018-02-27T14:14:38.377Z,31.50
2018-02-27T14:17:06.662Z,31.30
2018-02-27T14:19:35.369Z,31.70
2018-02-27T14:22:03.980Z,31.90
2018-02-27T14:24:32.407Z,31.60
2018-02-27T14:27:02.619Z,31.70
2018-02-27T14:29:31.038Z,31.90
2018-02-27T14:31:59.380Z,32.50
2018-02-27T14:34:28.041Z,31.90
2018-02-27T14:36:55.519Z,32.00
2018-02-27T14:39:23.600Z,32.30
2018-02-27T14:41:51.143Z,32.50
2018-02-27T14:44:19.447Z,32.70
2018-02-27T14:46:50.261Z,32.00
2018-02-27T14:49:18.398Z,32.90
2018-02-27T14:51:46.161Z,32.70
2018-02-27T14:54:13.669Z,32.80
2018-02-27T14:56:41.186Z,33.00
2018-02-27T14:59:09.652Z,32.00
2018-02-27T15:01:37.217Z,31.70
2018-02-27T15:04:05.181Z,32.10
2018-02-27T15:06:33.584Z,32.20
2018-02-27T15:09:01.148Z,32.60
2018-02-27T15:11:28.645Z,33.00
2018-02-27T15:13:57.168Z,32.50
2018-02-27T15:16:25.431Z,32.50
2018-02-27T15:18:52.973Z,32.60
2018-02-27T15:21:20.559Z,32.10
2018-02-27T15:23:48.045Z,32.50
2018-02-27T15:29:18.199Z,33.10
2018-02-27T15:31:45.719Z,33.50
2018-02-27T15:34:14.947Z,34.10
2018-02-27T15:36:42.410Z,34.00
2018-02-27T15:39:09.968Z,34.20
2018-02-27T15:41:37.489Z,34.30
2018-02-27T15:44:05.746Z,35.00
2018-02-27T15:46:34.049Z,36.30
2018-02-27T15:49:01.539Z,36.30
2018-02-27T15:51:29.034Z,37.50
2018-02-27T15:53:59.907Z,38.70
2018-02-27T15:56:27.435Z,38.70
2018-02-27T16:12:01.612Z,39.20
2018-02-27T16:14:29.086Z,36.80
2018-02-27T16:16:57.338Z,37.00
2018-02-27T16:19:24.817Z,37.00
2018-02-27T16:21:53.068Z,36.70
2018-02-27T16:24:20.769Z,36.70
2018-02-27T16:26:48.859Z,37.10
2018-02-27T16:29:16.985Z,36.90
2018-02-27T16:31:45.802Z,36.90
2018-02-27T16:34:14.157Z,36.40
2018-02-27T16:36:42.422Z,37.10
2018-02-27T16:39:10.678Z,37.50
2018-02-27T16:41:38.158Z,37.50
2018-02-27T16:44:06.919Z,38.60
2018-02-27T16:46:34.391Z,38.60
2018-02-27T16:49:01.890Z,39.10
2018-02-27T16:51:29.382Z,39.20
2018-02-27T16:53:56.954Z,39.50
2018-02-27T16:56:26.375Z,39.90
2018-02-27T16:58:54.628Z,40.20
2018-02-27T17:01:22.194Z,40.20
2018-02-27T17:03:50.482Z,41.00
2018-02-27T17:06:18.740Z,41.30
2018-02-27T17:08:46.260Z,41.20
2018-02-27T17:11:13.772Z,41.60
2018-02-27T17:13:42.027Z,41.70
2018-02-27T17:16:10.459Z,41.60
2018-02-27T17:18:37.931Z,41.60
2018-02-27T17:21:06.036Z,41.70
2018-02-27T17:23:33.541Z,41.90
2018-02-27T17:26:01.039Z,42.20
2018-02-27T17:28:28.500Z,42.00
2018-02-27T17:30:55.999Z,41.90
2018-02-27T17:33:23.492Z,41.90
2018-02-27T17:35:51.306Z,41.60
2018-02-27T17:38:18.894Z,41.80
2018-02-27T17:40:47.191Z,42.00
2018-02-27T17:43:14.925Z,42.00
2018-02-27T17:45:42.410Z,42.00
2018-02-27T17:48:10.440Z,42.10
2018-02-27T18:03:39.825Z,42.30
2018-02-27T18:06:07.481Z,43.60
2018-02-27T18:08:36.399Z,43.60
2018-02-27T18:11:05.155Z,43.60
2018-02-27T18:13:33.502Z,43.50
2018-02-27T18:16:01.801Z,43.20
2018-02-27T18:18:29.312Z,43.20
2018-02-27T18:20:56.957Z,43.40
2018-02-27T18:23:25.393Z,43.40
2018-02-27T18:25:54.840Z,43.70
2018-02-27T18:28:23.096Z,43.70
2018-02-27T18:30:50.617Z,43.90
2018-02-27T18:33:18.946Z,44.00
2018-02-27T18:35:46.817Z,44.00
2018-02-27T18:38:14.351Z,44.30
2018-02-27T18:40:41.872Z,44.30
2018-02-27T18:43:11.759Z,44.50
2018-02-27T18:45:39.802Z,44.40
2018-02-27T18:48:07.288Z,44.50
2018-02-27T18:50:34.837Z,44.70
2018-02-27T18:53:02.485Z,44.90
2018-02-27T18:55:30.778Z,44.90
2018-02-27T18:58:03.345Z,45.30
2018-02-27T19:00:31.727Z,45.30
2018-02-27T19:02:59.822Z,45.60
2018-02-27T19:05:28.105Z,46.20
2018-02-27T19:07:56.395Z,46.30
2018-02-27T19:10:23.896Z,46.30
2018-02-27T19:12:51.399Z,46.60
2018-02-27T19:15:19.461Z,46.80
2018-02-27T19:17:47.496Z,46.80
2018-02-27T19:20:17.376Z,46.90
2018-02-27T19:22:46.791Z,47.20
2018-02-27T19:25:14.335Z,47.20
2018-02-27T19:27:41.924Z,47.50
2018-02-27T19:30:09.506Z,47.60
2018-02-27T19:32:37.809Z,47.90
2018-02-27T19:35:05.344Z,47.80
2018-02-27T19:37:33.859Z,48.20
2018-02-27T19:40:02.238Z,48.10
2018-02-27T19:42:29.903Z,48.10
2018-02-27T19:44:57.609Z,48.20
2018-02-27T19:47:25.634Z,48.40
2018-02-27T19:49:54.638Z,48.60
2018-02-27T19:52:23.175Z,48.70
2018-02-27T19:54:51.500Z,48.90
2018-02-27T19:57:20.123Z,48.90
2018-02-27T19:59:48.421Z,49.10
2018-02-27T20:02:15.993Z,49.00
2018-02-27T20:04:44.816Z,49.30
2018-02-27T20:07:13.058Z,49.50
2018-02-27T20:09:40.581Z,49.70
2018-02-27T20:12:08.096Z,49.70
2018-02-27T20:14:37.288Z,50.00
2018-02-27T20:17:05.178Z,50.10
2018-02-27T20:19:33.421Z,50.00
2018-02-27T20:22:01.763Z,50.20
2018-02-27T20:24:31.890Z,50.30
2018-02-27T20:27:01.144Z,50.20
2018-02-27T20:29:29.776Z,50.30
2018-02-27T20:31:57.257Z,50.40
2018-02-27T20:34:25.624Z,50.40
2018-02-27T20:36:54.694Z,50.50
2018-02-27T20:39:25.697Z,50.80
2018-02-27T20:41:55.038Z,50.80
2018-02-27T20:44:22.765Z,51.20
2018-02-27T20:46:51.442Z,51.20
2018-02-27T20:49:20.908Z,51.40
2018-02-27T20:51:48.587Z,51.40
2018-02-27T20:54:17.171Z,51.50
2018-02-27T20:56:45.540Z,51.70
2018-02-27T20:59:13.371Z,51.90
2018-02-27T21:01:40.925Z,52.10
2018-02-27T21:04:08.416Z,52.50
2018-02-27T21:06:36.077Z,52.60
2018-02-27T21:09:03.592Z,52.90
2018-02-27T21:11:31.095Z,53.10
2018-02-27T21:13:58.585Z,53.40
2018-02-27T21:16:27.723Z,53.80
2018-02-27T21:18:55.250Z,53.70
2018-02-27T21:21:22.752Z,54.10
2018-02-27T21:23:51.049Z,54.20
2018-02-27T21:26:18.516Z,54.40
2018-02-27T21:28:49.539Z,55.40
2018-02-27T21:31:17.447Z,55.40
2018-02-27T21:33:46.463Z,55.60
2018-02-27T21:36:13.973Z,55.90
2018-02-27T21:38:42.236Z,56.50
2018-02-27T21:41:09.751Z,56.50
2018-02-27T21:43:37.245Z,56.70
2018-02-27T21:46:04.818Z,57.00
2018-02-27T21:48:33.654Z,57.00
2018-02-27T21:51:01.169Z,56.90
2018-02-27T21:53:29.448Z,57.40
2018-02-27T21:55:59.283Z,57.20
2018-02-27T21:58:29.221Z,57.20
2018-02-27T22:00:56.737Z,57.10
2018-02-27T22:03:24.215Z,57.20
2018-02-27T22:05:51.700Z,57.10
2018-02-27T22:08:19.201Z,57.20
2018-02-27T22:10:47.594Z,57.10
2018-02-27T22:13:15.118Z,57.00
2018-02-27T22:15:43.371Z,57.70
2018-02-27T22:18:11.697Z,57.60
2018-02-27T22:20:39.486Z,57.60
2018-02-27T22:23:07.026Z,57.80
2018-02-27T22:25:34.530Z,58.30
2018-02-27T22:28:02.055Z,58.50
2018-02-27T22:30:29.543Z,58.70
2018-02-27T22:32:58.527Z,58.90
2018-02-27T22:35:27.001Z,58.80
2018-02-27T22:37:54.861Z,59.00
2018-02-27T22:40:22.984Z,58.90
2018-02-27T22:42:51.232Z,59.20
2018-02-27T22:45:18.854Z,59.20
2018-02-27T22:47:46.415Z,59.70
2018-02-27T22:50:13.923Z,59.80
2018-02-27T22:52:42.241Z,60.30
2018-02-27T22:55:10.731Z,60.20
2018-02-27T22:57:39.711Z,60.50
2018-02-27T23:00:07.669Z,60.50
2018-02-27T23:02:35.208Z,60.40
2018-02-27T23:05:03.950Z,60.50
2018-02-27T23:07:31.450Z,60.90
2018-02-27T23:09:59.026Z,60.90
2018-02-27T23:12:26.607Z,61.10
2018-02-27T23:14:54.124Z,61.50
2018-02-27T23:17:22.540Z,61.60
2018-02-27T23:29:36.243Z,61.80
2018-02-27T23:32:04.421Z,64.50
2018-02-27T23:34:40.807Z,64.90
2018-02-27T23:37:09.868Z,65.90
2018-02-27T23:39:40.007Z,65.20
2018-02-27T23:42:10.656Z,65.50
2018-02-27T23:44:38.898Z,65.80
2018-02-27T23:47:07.194Z,65.70
2018-02-27T23:49:35.442Z,65.60
2018-02-27T23:52:03.638Z,65.50
2018-02-27T23:54:31.903Z,66.20
2018-02-27T23:57:01.078Z,65.50
2018-02-27T23:59:29.078Z,65.60
